createdAt,value
2023-03-01T00:01:39.663Z,1.77
2023-03-01T00:04:43.391Z,1.70
2023-03-01T00:07:47.220Z,2.10
2023-03-01T00:10:52.492Z,2.00
2023-03-01T00:13:58.747Z,1.60
2023-03-01T00:17:03.276Z,2.93
2023-03-01T00:20:09.526Z,3.23
2023-03-01T00:23:13.387Z,3.07
2023-03-01T00:26:19.494Z,3.57
2023-03-01T00:29:23.341Z,2.30
2023-03-01T00:32:27.127Z,5.40
2023-03-01T00:35:30.944Z,5.03
2023-03-01T00:38:37.731Z,4.10
2023-03-01T00:41:43.121Z,3.20
2023-03-01T00:44:46.676Z,3.40
2023-03-01T00:47:50.998Z,3.20
2023-03-01T00:50:54.619Z,2.87
2023-03-01T00:54:00.400Z,2.70
2023-03-01T00:57:05.740Z,2.30
2023-03-01T01:00:12.596Z,1.77
2023-03-01T01:03:16.354Z,2.03
2023-03-01T01:06:22.090Z,1.80
2023-03-01T01:09:25.822Z,1.77
2023-03-01T01:12:32.046Z,1.67
2023-03-01T01:15:36.856Z,1.60
2023-03-01T01:18:40.672Z,1.60
2023-03-01T01:21:46.166Z,1.90
2023-03-01T01:24:49.766Z,1.97
2023-03-01T01:27:55.110Z,2.10
2023-03-01T01:30:58.915Z,2.10
2023-03-01T01:34:03.556Z,2.17
2023-03-01T01:37:09.036Z,5.00
2023-03-01T01:40:13.955Z,4.50
2023-03-01T01:43:23.904Z,5.93
2023-03-01T01:46:33.193Z,14.40
2023-03-01T01:49:40.525Z,9.07
2023-03-01T01:52:44.307Z,10.80
2023-03-01T01:55:51.487Z,4.57
2023-03-01T01:58:57.895Z,4.80
2023-03-01T02:02:04.102Z,2.10
2023-03-01T02:05:13.987Z,3.73
2023-03-01T02:08:21.233Z,3.93
2023-03-01T02:11:25.130Z,4.67
2023-03-01T02:14:30.165Z,5.97
2023-03-01T02:17:34.969Z,3.30
2023-03-01T02:20:47.904Z,3.33
2023-03-01T02:23:51.556Z,2.60
2023-03-01T02:26:57.750Z,2.70
2023-03-01T02:30:02.746Z,2.57
2023-03-01T02:33:05.937Z,2.53
2023-03-01T02:36:14.468Z,2.23
2023-03-01T02:39:22.094Z,5.07
2023-03-01T02:42:31.399Z,5.57
2023-03-01T02:45:36.509Z,3.57
2023-03-01T02:48:46.106Z,10.03
2023-03-01T02:52:03.965Z,5.67
2023-03-01T02:55:10.946Z,3.10
2023-03-01T02:58:15.086Z,5.07
2023-03-01T03:01:20.772Z,2.50
2023-03-01T03:04:24.705Z,2.83
2023-03-01T03:07:28.931Z,2.77
2023-03-01T03:10:34.794Z,2.90
2023-03-01T03:13:42.803Z,1.73
2023-03-01T03:16:50.720Z,2.47
2023-03-01T03:19:54.668Z,3.10
2023-03-01T03:23:00.597Z,3.10
2023-03-01T03:26:05.898Z,3.00
2023-03-01T03:29:09.657Z,3.27
2023-03-01T03:32:14.752Z,3.60
2023-03-01T03:35:18.469Z,3.90
2023-03-01T03:38:23.229Z,3.67
2023-03-01T03:41:26.945Z,3.77
2023-03-01T03:44:30.436Z,3.33
2023-03-01T03:47:35.438Z,4.10
2023-03-01T03:50:39.473Z,3.20
2023-03-01T03:53:44.074Z,2.80
2023-03-01T04:00:13.950Z,2.50
2023-03-01T04:03:22.256Z,2.53
2023-03-01T04:06:26.051Z,2.63
2023-03-01T04:09:31.439Z,2.90
2023-03-01T04:12:36.089Z,2.50
2023-03-01T04:15:40.001Z,2.60
2023-03-01T04:18:45.260Z,2.80
2023-03-01T04:21:48.876Z,2.80
2023-03-01T04:24:52.558Z,2.60
2023-03-01T04:27:56.390Z,2.80
2023-03-01T04:31:01.748Z,2.87
2023-03-01T04:34:06.926Z,2.87
2023-03-01T04:37:10.437Z,2.93
2023-03-01T04:40:17.599Z,3.80
2023-03-01T04:43:21.173Z,3.10
2023-03-01T04:46:24.881Z,3.10
2023-03-01T04:49:29.965Z,3.00
2023-03-01T04:52:33.812Z,3.53
2023-03-01T04:55:38.463Z,3.40
2023-03-01T04:58:42.171Z,3.50
2023-03-01T05:01:45.772Z,4.07
2023-03-01T05:04:50.728Z,5.80
2023-03-01T05:07:56.346Z,7.97
2023-03-01T05:10:59.914Z,7.23
2023-03-01T05:14:03.940Z,3.50
2023-03-01T05:17:07.445Z,6.10
2023-03-01T05:20:13.846Z,5.27
2023-03-01T05:23:17.328Z,12.87
2023-03-01T05:26:39.659Z,7.63
2023-03-01T05:29:43.681Z,6.87
2023-03-01T05:32:49.155Z,6.90
2023-03-01T05:35:55.169Z,5.17
2023-03-01T05:38:58.844Z,4.23
2023-03-01T05:42:03.444Z,4.80
2023-03-01T05:45:10.815Z,6.57
2023-03-01T05:48:15.128Z,7.33
2023-03-01T05:51:20.161Z,5.90
2023-03-01T05:54:24.399Z,4.63
2023-03-01T05:57:30.274Z,5.17
2023-03-01T06:00:34.726Z,4.93
2023-03-01T06:03:38.484Z,5.00
2023-03-01T06:06:43.690Z,5.83
2023-03-01T06:09:47.470Z,4.50
2023-03-01T06:12:51.271Z,4.70
2023-03-01T06:15:55.093Z,4.27
2023-03-01T06:18:59.997Z,4.17
2023-03-01T06:22:05.211Z,4.80
2023-03-01T06:25:10.263Z,3.93
2023-03-01T06:28:13.983Z,3.77
2023-03-01T06:31:17.771Z,4.63
2023-03-01T06:34:23.013Z,4.23
2023-03-01T06:37:28.416Z,4.50
2023-03-01T06:40:33.403Z,4.50
2023-03-01T06:43:37.320Z,4.23
2023-03-01T06:46:41.748Z,4.17
2023-03-01T06:49:45.437Z,6.33
2023-03-01T06:52:50.621Z,7.07
2023-03-01T06:55:57.316Z,5.70
2023-03-01T06:59:01.160Z,4.40
2023-03-01T07:02:04.955Z,3.73
2023-03-01T07:05:09.322Z,5.70
2023-03-01T07:08:14.555Z,6.07
2023-03-01T07:11:18.736Z,6.10
2023-03-01T07:14:22.531Z,3.80
2023-03-01T07:17:26.275Z,3.20
2023-03-01T07:20:30.290Z,3.57
2023-03-01T07:23:35.665Z,3.50
2023-03-01T07:26:39.624Z,2.93
2023-03-01T07:29:44.106Z,3.33
2023-03-01T07:32:48.025Z,3.50
2023-03-01T07:35:58.999Z,3.27
2023-03-01T07:39:04.540Z,2.90
2023-03-01T07:42:08.301Z,3.00
2023-03-01T07:45:14.646Z,2.80
2023-03-01T07:48:18.424Z,3.20
2023-03-01T07:51:22.335Z,2.40
2023-03-01T07:54:27.698Z,2.30
2023-03-01T07:57:31.404Z,2.30
2023-03-01T08:00:35.256Z,2.20
2023-03-01T08:03:39.700Z,3.63
2023-03-01T08:06:43.458Z,2.10
2023-03-01T08:09:48.702Z,2.20
2023-03-01T08:12:55.066Z,2.60
2023-03-01T08:16:04.434Z,2.67
2023-03-01T08:19:08.824Z,1.80
2023-03-01T08:22:12.705Z,1.27
2023-03-01T08:25:18.031Z,1.50
2023-03-01T08:28:22.227Z,1.43
2023-03-01T08:31:28.630Z,1.30
2023-03-01T08:34:32.928Z,1.67
2023-03-01T08:37:36.780Z,2.60
2023-03-01T08:40:42.100Z,2.87
2023-03-01T08:43:45.943Z,1.93
2023-03-01T08:46:51.141Z,2.40
2023-03-01T08:49:54.802Z,6.57
2023-03-01T08:52:58.603Z,2.80
2023-03-01T08:56:04.883Z,2.83
2023-03-01T08:59:09.139Z,2.20
2023-03-01T09:02:16.040Z,5.60
2023-03-01T09:05:20.418Z,4.57
2023-03-01T09:08:24.312Z,2.23
2023-03-01T09:11:31.231Z,2.27
2023-03-01T09:14:35.072Z,4.37
2023-03-01T09:17:39.010Z,4.17
2023-03-01T09:20:43.085Z,6.87
2023-03-01T09:23:48.290Z,4.93
2023-03-01T09:26:57.056Z,1.70
2023-03-01T09:30:00.827Z,3.67
2023-03-01T09:33:04.625Z,2.10
2023-03-01T09:36:12.506Z,2.70
2023-03-01T09:39:16.290Z,3.47
2023-03-01T09:42:21.752Z,3.00
2023-03-01T09:45:33.197Z,1.83
2023-03-01T09:48:45.553Z,3.10
2023-03-01T09:51:58.302Z,1.27
2023-03-01T09:55:02.062Z,1.50
2023-03-01T09:58:31.884Z,1.40
2023-03-01T10:01:41.146Z,7.70
2023-03-01T10:04:50.113Z,2.30
2023-03-01T10:08:04.405Z,2.40
2023-03-01T10:11:24.917Z,1.50
2023-03-01T10:14:36.769Z,1.70
2023-03-01T10:17:45.996Z,1.40
2023-03-01T10:20:55.509Z,1.33
2023-03-01T10:24:10.474Z,1.50
2023-03-01T10:27:21.167Z,2.53
2023-03-01T10:30:39.841Z,1.73
2023-03-01T10:33:43.915Z,2.10
2023-03-01T10:36:51.578Z,2.37
2023-03-01T10:40:01.214Z,2.10
2023-03-01T10:43:07.491Z,2.27
2023-03-01T10:46:25.623Z,1.90
2023-03-01T10:49:29.474Z,2.23
2023-03-01T10:52:37.015Z,2.00
2023-03-01T10:55:42.820Z,1.83
2023-03-01T10:59:01.218Z,2.30
2023-03-01T11:02:24.892Z,2.57
2023-03-01T11:05:31.652Z,1.37
2023-03-01T11:08:39.450Z,1.40
2023-03-01T11:11:43.238Z,1.67
2023-03-01T11:14:50.561Z,1.90
2023-03-01T11:18:05.705Z,2.67
2023-03-01T11:21:17.956Z,2.60
2023-03-01T11:24:26.357Z,2.10
2023-03-01T11:27:33.755Z,2.50
2023-03-01T11:30:43.801Z,1.57
2023-03-01T11:33:52.634Z,1.83
2023-03-01T11:37:01.514Z,1.60
2023-03-01T11:40:15.461Z,1.83
2023-03-01T11:43:25.875Z,2.10
2023-03-01T11:46:54.577Z,1.57
2023-03-01T11:50:14.779Z,4.67
2023-03-01T11:53:46.766Z,2.13
2023-03-01T11:56:57.495Z,1.80
2023-03-01T12:00:09.835Z,1.40
2023-03-01T12:03:34.073Z,1.60
2023-03-01T12:06:56.779Z,1.70
2023-03-01T12:10:23.281Z,2.00
2023-03-01T12:13:49.865Z,1.60
2023-03-01T12:17:09.203Z,2.23
2023-03-01T12:20:33.995Z,1.90
2023-03-01T12:24:06.993Z,1.50
2023-03-01T12:27:39.323Z,1.70
2023-03-01T12:30:58.343Z,2.30
2023-03-01T12:34:10.859Z,2.60
2023-03-01T12:37:28.153Z,1.80
2023-03-01T12:41:04.642Z,1.70
2023-03-01T12:44:18.105Z,2.17
2023-03-01T12:47:36.963Z,2.47
2023-03-01T12:50:45.006Z,2.30
2023-03-01T12:53:51.294Z,1.63
2023-03-01T12:56:57.949Z,2.60
2023-03-01T13:00:20.311Z,1.90
2023-03-01T13:03:31.332Z,2.37
2023-03-01T13:06:43.752Z,2.53
2023-03-01T13:09:56.357Z,2.47
2023-03-01T13:13:21.215Z,2.50
2023-03-01T13:16:44.067Z,2.27
2023-03-01T13:19:59.133Z,2.73
2023-03-01T13:23:08.309Z,2.20
2023-03-01T13:26:18.382Z,2.50
2023-03-01T13:29:29.872Z,2.30
2023-03-01T13:32:43.705Z,1.93
2023-03-01T13:35:48.459Z,2.43
2023-03-01T13:38:59.438Z,2.80
2023-03-01T13:42:03.356Z,2.70
2023-03-01T13:45:22.742Z,2.70
2023-03-01T13:48:30.285Z,2.57
2023-03-01T13:51:34.894Z,2.47
2023-03-01T13:54:41.512Z,2.50
2023-03-01T13:57:49.344Z,3.00
2023-03-01T14:01:01.043Z,2.50
2023-03-01T14:04:23.334Z,2.70
2023-03-01T14:07:30.659Z,2.20
2023-03-01T14:10:43.197Z,3.00
2023-03-01T14:14:01.432Z,2.90
2023-03-01T14:17:23.648Z,3.50
2023-03-01T14:20:30.080Z,3.20
2023-03-01T14:23:36.561Z,3.70
2023-03-01T14:26:40.526Z,3.17
2023-03-01T14:29:44.773Z,3.80
2023-03-01T14:33:16.539Z,3.50
2023-03-01T14:36:29.475Z,3.70
2023-03-01T14:39:34.961Z,6.17
2023-03-01T14:42:39.933Z,4.43
2023-03-01T14:45:51.235Z,8.27
2023-03-01T14:49:03.764Z,8.17
2023-03-01T14:52:18.727Z,6.07
2023-03-01T14:55:27.148Z,4.63
2023-03-01T14:58:31.113Z,4.40
2023-03-01T15:01:35.107Z,4.03
2023-03-01T15:04:40.631Z,5.10
2023-03-01T15:07:50.188Z,6.93
2023-03-01T15:11:02.906Z,6.00
2023-03-01T15:14:47.364Z,5.10
2023-03-01T15:17:57.851Z,5.73
2023-03-01T15:21:11.807Z,5.37
2023-03-01T15:24:22.108Z,4.67
2023-03-01T15:27:28.182Z,4.40
2023-03-01T15:30:38.961Z,3.53
2023-03-01T15:33:48.425Z,2.43
2023-03-01T15:36:54.797Z,4.43
2023-03-01T15:40:00.031Z,4.50
2023-03-01T15:43:05.489Z,4.20
2023-03-01T15:46:19.717Z,4.57
2023-03-01T15:49:33.386Z,2.87
2023-03-01T15:52:43.777Z,3.07
2023-03-01T15:55:50.796Z,2.70
2023-03-01T15:58:54.536Z,2.97
2023-03-01T16:01:58.335Z,10.30
2023-03-01T16:05:02.141Z,16.33
2023-03-01T16:08:08.664Z,21.83
2023-03-01T16:11:18.262Z,9.37
2023-03-01T16:14:22.518Z,12.60
2023-03-01T16:17:27.094Z,13.47
2023-03-01T16:20:33.996Z,15.63
2023-03-01T16:23:39.635Z,24.13
2023-03-01T16:26:44.123Z,8.33
2023-03-01T16:29:47.825Z,10.20
2023-03-01T16:32:52.474Z,8.97
2023-03-01T16:35:56.275Z,12.30
2023-03-01T16:39:04.303Z,8.70
2023-03-01T16:42:08.091Z,8.07
2023-03-01T16:45:22.763Z,6.20
2023-03-01T16:48:27.990Z,9.53
2023-03-01T16:51:35.858Z,7.50
2023-03-01T16:54:41.860Z,10.03
2023-03-01T16:57:45.750Z,11.63
2023-03-01T17:00:49.537Z,10.37
2023-03-01T17:03:53.364Z,9.00
2023-03-01T17:06:57.122Z,10.33
2023-03-01T17:10:13.685Z,8.20
2023-03-01T17:13:17.698Z,9.63
2023-03-01T17:16:23.061Z,9.20
2023-03-01T17:19:26.908Z,8.33
2023-03-01T17:22:30.716Z,9.80
2023-03-01T17:25:35.910Z,14.30
2023-03-01T17:28:39.892Z,8.03
2023-03-01T17:31:43.671Z,6.00
2023-03-01T17:34:47.952Z,10.57
2023-03-01T17:37:51.774Z,10.83
2023-03-01T17:40:57.031Z,9.20
2023-03-01T17:44:00.859Z,12.60
2023-03-01T17:47:05.861Z,9.13
2023-03-01T17:50:10.693Z,11.80
2023-03-01T17:53:15.001Z,10.87
2023-03-01T17:56:20.211Z,11.47
2023-03-01T17:59:24.054Z,13.63
2023-03-01T18:02:27.997Z,11.80
2023-03-01T18:05:34.084Z,10.73
2023-03-01T18:08:37.764Z,18.57
2023-03-01T18:11:54.051Z,12.07
2023-03-01T18:15:01.024Z,20.10
2023-03-01T18:18:05.364Z,16.73
2023-03-01T18:21:09.991Z,12.47
2023-03-01T18:24:13.810Z,19.73
2023-03-01T18:27:19.251Z,10.17
2023-03-01T18:30:23.260Z,14.60
2023-03-01T18:33:27.525Z,13.33
2023-03-01T18:36:33.852Z,13.73
2023-03-01T18:39:37.885Z,9.73
2023-03-01T18:42:43.177Z,12.40
2023-03-01T18:45:46.976Z,9.37
2023-03-01T18:48:51.122Z,9.27
2023-03-01T18:51:55.712Z,11.47
2023-03-01T18:54:59.682Z,10.93
2023-03-01T18:58:05.244Z,9.70
2023-03-01T19:01:15.865Z,9.87
2023-03-01T19:04:19.909Z,15.13
2023-03-01T19:07:24.011Z,9.03
2023-03-01T19:10:28.562Z,15.20
2023-03-01T19:13:35.686Z,14.37
2023-03-01T19:16:39.565Z,10.77
2023-03-01T19:19:43.372Z,9.60
2023-03-01T19:22:47.212Z,9.83
2023-03-01T19:25:51.173Z,11.17
2023-03-01T19:28:56.990Z,11.97
2023-03-01T19:32:00.688Z,12.20
2023-03-01T19:35:04.523Z,12.33
2023-03-01T19:38:08.365Z,16.33
2023-03-01T19:41:15.028Z,13.60
2023-03-01T19:44:25.077Z,15.03
2023-03-01T19:47:28.963Z,13.67
2023-03-01T19:50:32.923Z,16.53
2023-03-01T19:53:36.846Z,13.70
2023-03-01T19:56:41.044Z,16.57
2023-03-01T19:59:46.266Z,17.63
2023-03-01T20:02:50.274Z,16.60
2023-03-01T20:05:54.129Z,17.77
2023-03-01T20:08:58.720Z,15.47
2023-03-01T20:12:03.396Z,17.67
2023-03-01T20:15:10.047Z,17.20
2023-03-01T20:18:15.279Z,14.63
2023-03-01T20:21:24.384Z,15.50
2023-03-01T20:24:28.414Z,16.30
2023-03-01T20:27:32.574Z,13.30
2023-03-01T20:30:39.017Z,12.03
2023-03-01T20:33:42.922Z,12.67
2023-03-01T20:36:46.747Z,13.90
2023-03-01T20:39:50.584Z,15.67
2023-03-01T20:42:55.121Z,14.23
2023-03-01T20:46:00.812Z,10.90
2023-03-01T20:49:05.537Z,12.33
2023-03-01T20:52:09.350Z,13.60
2023-03-01T20:55:13.214Z,11.67
2023-03-01T20:58:16.889Z,13.20
2023-03-01T21:01:24.798Z,13.10
2023-03-01T21:04:28.526Z,12.63
2023-03-01T21:07:32.230Z,15.60
2023-03-01T21:10:35.939Z,11.13
2023-03-01T21:13:39.721Z,14.83
2023-03-01T21:16:46.978Z,12.50
2023-03-01T21:19:50.851Z,13.00
2023-03-01T21:22:54.630Z,13.00
2023-03-01T21:26:03.583Z,12.97
2023-03-01T21:29:07.318Z,12.50
2023-03-01T21:32:13.663Z,11.33
2023-03-01T21:35:17.568Z,12.23
2023-03-01T21:38:21.259Z,15.10
2023-03-01T21:41:28.348Z,12.23
2023-03-01T21:44:33.642Z,11.67
2023-03-01T21:47:39.683Z,11.93
2023-03-01T21:50:43.447Z,12.80
2023-03-01T21:53:48.041Z,11.63
2023-03-01T21:56:52.009Z,12.13
2023-03-01T21:59:55.907Z,13.07
2023-03-01T22:03:01.150Z,13.07
2023-03-01T22:06:05.160Z,13.17
2023-03-01T22:09:11.295Z,17.47
2023-03-01T22:12:15.068Z,17.10
2023-03-01T22:15:18.964Z,15.40
2023-03-01T22:18:24.215Z,13.83
2023-03-01T22:21:28.505Z,16.57
2023-03-01T22:24:32.325Z,16.60
2023-03-01T22:27:37.499Z,14.27
2023-03-01T22:30:41.386Z,14.90
2023-03-01T22:33:46.765Z,15.00
2023-03-01T22:36:50.748Z,16.27
2023-03-01T22:39:54.913Z,15.87
2023-03-01T22:42:58.657Z,17.43
2023-03-01T22:46:11.290Z,13.67
2023-03-01T22:49:17.278Z,16.33
2023-03-01T22:52:21.057Z,18.13
2023-03-01T22:55:24.815Z,17.87
2023-03-01T22:58:28.688Z,15.80
2023-03-01T23:01:32.754Z,17.03
2023-03-01T23:04:37.814Z,14.93
2023-03-01T23:07:41.799Z,17.17
2023-03-01T23:10:45.580Z,12.23
2023-03-01T23:13:49.719Z,14.17
2023-03-01T23:16:54.257Z,16.67
2023-03-01T23:19:59.696Z,13.90
2023-03-01T23:23:03.565Z,15.70
2023-03-01T23:26:07.933Z,16.83
2023-03-01T23:29:11.756Z,15.83
2023-03-01T23:32:15.567Z,13.47
2023-03-01T23:35:20.903Z,16.43
2023-03-01T23:38:24.702Z,17.87
2023-03-01T23:41:31.341Z,18.20
2023-03-01T23:44:35.061Z,18.07
2023-03-01T23:47:38.838Z,14.00
2023-03-01T23:50:44.038Z,16.43
2023-03-01T23:53:54.818Z,17.13
2023-03-01T23:56:58.706Z,17.07
